createdAt,value
2023-01-02T00:01:33.922Z,54.34
2023-01-02T00:06:38.127Z,52.88
2023-01-02T00:11:41.053Z,52.42
2023-01-02T00:16:45.314Z,51.99
2023-01-02T00:21:48.185Z,52.23
2023-01-02T00:26:51.055Z,51.14
2023-01-02T00:31:55.326Z,50.65
2023-01-02T00:36:58.215Z,50.13
2023-01-02T00:42:01.079Z,50.21
2023-01-02T00:47:05.420Z,50.11
2023-01-02T00:52:08.332Z,50.08
2023-01-02T00:57:11.273Z,49.01
2023-01-02T01:02:20.569Z,49.68
2023-01-02T01:07:23.993Z,49.78
2023-01-02T01:12:26.999Z,49.56
2023-01-02T01:17:32.867Z,48.92
2023-01-02T01:22:35.903Z,48.36
2023-01-02T01:27:39.227Z,47.78
2023-01-02T01:32:44.662Z,47.97
2023-01-02T01:37:48.032Z,47.74
2023-01-02T01:42:52.129Z,47.14
2023-01-02T01:48:01.648Z,46.45
2023-01-02T01:53:09.909Z,47.14
2023-01-02T01:58:17.401Z,47.31
2023-01-02T02:03:25.670Z,46.85
2023-01-02T02:08:37.653Z,46.75
2023-01-02T02:13:40.733Z,46.83
2023-01-02T02:19:08.204Z,46.43
2023-01-02T02:24:37.456Z,45.86
2023-01-02T02:30:04.377Z,45.68
2023-01-02T02:35:17.063Z,45.97
2023-01-02T02:40:28.504Z,45.00
2023-01-02T02:45:41.348Z,44.90
2023-01-02T02:50:50.952Z,45.15
2023-01-02T02:55:56.935Z,45.59
2023-01-02T03:01:07.115Z,45.82
2023-01-02T03:06:25.925Z,45.55
2023-01-02T03:11:40.001Z,45.63
2023-01-02T03:16:48.287Z,46.28
2023-01-02T03:21:57.503Z,45.52
2023-01-02T03:27:05.312Z,45.27
2023-01-02T03:32:13.589Z,45.25
2023-01-02T03:37:20.484Z,45.68
2023-01-02T03:42:28.949Z,45.41
2023-01-02T03:47:39.652Z,45.20
2023-01-02T03:52:42.650Z,44.77
2023-01-02T03:57:57.515Z,44.79
2023-01-02T04:03:07.537Z,44.33
2023-01-02T04:08:17.731Z,44.44
2023-01-02T04:13:25.924Z,44.83
2023-01-02T04:18:34.598Z,44.58
2023-01-02T04:23:42.102Z,43.73
2023-01-02T04:28:45.141Z,43.60
2023-01-02T04:33:52.673Z,44.15
2023-01-02T04:38:55.557Z,44.26
2023-01-02T04:43:58.894Z,45.30
2023-01-02T04:49:03.181Z,44.81
2023-01-02T04:54:06.287Z,44.88
2023-01-02T04:59:09.392Z,45.47
2023-01-02T05:04:13.692Z,46.33
2023-01-02T05:09:17.198Z,45.97
2023-01-02T05:14:20.090Z,45.95
2023-01-02T05:19:24.326Z,45.94
2023-01-02T05:24:27.470Z,45.93
2023-01-02T05:29:30.853Z,46.14
2023-01-02T05:34:35.141Z,46.49
2023-01-02T05:39:38.081Z,46.47
2023-01-02T05:44:41.068Z,47.51
2023-01-02T05:49:45.303Z,47.54
2023-01-02T05:54:48.194Z,47.83
2023-01-02T05:59:51.040Z,47.49
2023-01-02T06:04:55.293Z,47.72
2023-01-02T06:09:58.185Z,47.73
2023-01-02T06:15:01.442Z,48.10
2023-01-02T06:20:06.985Z,47.71
2023-01-02T06:25:10.273Z,47.82
2023-01-02T06:30:13.684Z,48.38
2023-01-02T06:35:17.919Z,48.57
2023-01-02T06:40:20.852Z,48.52
2023-01-02T06:45:24.729Z,47.84
2023-01-02T06:50:34.986Z,48.18
2023-01-02T06:55:38.323Z,48.98
2023-01-02T07:00:41.318Z,48.62
2023-01-02T07:05:45.939Z,48.74
2023-01-02T07:10:52.861Z,48.89
2023-01-02T07:15:56.081Z,48.96
2023-01-02T07:21:00.633Z,49.02
2023-01-02T07:26:07.153Z,49.82
2023-01-02T07:31:13.955Z,51.22
2023-01-02T07:36:22.144Z,52.13
2023-01-02T07:41:26.770Z,50.80
2023-01-02T07:46:29.665Z,51.81
2023-01-02T07:51:34.544Z,53.90
2023-01-02T07:56:37.538Z,54.58
2023-01-02T08:01:40.481Z,55.04
2023-01-02T08:06:45.004Z,53.10
2023-01-02T08:11:47.877Z,55.04
2023-01-02T08:16:51.040Z,54.64
2023-01-02T08:21:55.380Z,56.34
2023-01-02T08:26:58.542Z,56.43
2023-01-02T08:32:01.485Z,55.89
2023-01-02T08:37:05.868Z,57.56
2023-01-02T08:42:08.925Z,58.92
2023-01-02T08:47:11.992Z,58.54
2023-01-02T08:52:16.239Z,59.23
2023-01-02T08:57:19.117Z,60.26
2023-01-02T09:02:22.210Z,60.05
2023-01-02T09:07:26.930Z,59.75
2023-01-02T09:12:29.834Z,60.15
2023-01-02T09:17:32.693Z,60.29
2023-01-02T09:22:37.488Z,61.04
2023-01-02T09:27:40.381Z,60.76
2023-01-02T09:32:44.280Z,60.81
2023-01-02T09:37:48.605Z,62.66
2023-01-02T09:42:52.725Z,61.59
2023-01-02T09:48:00.343Z,60.61
2023-01-02T09:53:05.589Z,60.75
2023-01-02T09:58:17.177Z,61.13
2023-01-02T10:03:31.906Z,61.78
2023-01-02T10:08:44.419Z,61.00
2023-01-02T10:19:21.255Z,61.37
2023-01-02T10:24:38.575Z,60.85
2023-01-02T10:29:47.314Z,61.51
2023-01-02T10:35:10.605Z,61.98
2023-01-02T10:40:15.347Z,62.26
2023-01-02T10:45:18.413Z,62.44
2023-01-02T10:50:26.595Z,62.43
2023-01-02T10:55:33.844Z,63.04
2023-01-02T11:00:37.893Z,61.82
2023-01-02T11:05:47.089Z,61.40
2023-01-02T11:10:52.273Z,62.48
2023-01-02T11:15:58.958Z,62.44
2023-01-02T11:21:05.105Z,62.15
2023-01-02T11:26:14.784Z,61.68
2023-01-02T11:31:19.354Z,61.72
2023-01-02T11:36:22.436Z,62.84
2023-01-02T11:41:44.207Z,62.94
2023-01-02T11:46:47.891Z,62.90
2023-01-02T11:51:56.102Z,63.94
2023-01-02T11:57:01.260Z,63.59
2023-01-02T12:02:14.545Z,63.08
2023-01-02T12:07:44.268Z,59.83
2023-01-02T12:13:05.164Z,54.82
2023-01-02T12:18:20.805Z,58.58
2023-01-02T12:23:53.018Z,59.28
2023-01-02T12:29:46.566Z,59.04
2023-01-02T12:35:09.131Z,55.40
2023-01-02T12:40:30.173Z,55.64
2023-01-02T12:45:44.055Z,47.46
2023-01-02T12:51:10.864Z,44.57
2023-01-02T12:56:19.858Z,44.97
2023-01-02T13:01:30.083Z,45.39
2023-01-02T13:06:47.113Z,45.92
2023-01-02T13:11:55.944Z,45.02
2023-01-02T13:17:10.245Z,44.29
2023-01-02T13:22:22.210Z,45.31
2023-01-02T13:27:25.797Z,44.56
2023-01-02T13:32:31.023Z,44.05
2023-01-02T13:37:35.998Z,44.29
2023-01-02T13:42:56.541Z,44.61
2023-01-02T13:48:01.698Z,44.47
2023-01-02T13:53:08.865Z,44.57
2023-01-02T13:58:52.918Z,44.62
2023-01-02T14:04:30.578Z,44.69
2023-01-02T14:10:03.673Z,44.21
2023-01-02T14:15:07.635Z,43.15
2023-01-02T14:20:22.777Z,44.61
2023-01-02T14:25:27.557Z,43.90
2023-01-02T14:30:37.540Z,43.73
2023-01-02T14:35:42.370Z,44.68
2023-01-02T14:40:48.314Z,44.31
2023-01-02T14:45:53.040Z,44.52
2023-01-02T14:50:57.312Z,45.18
2023-01-02T14:56:06.013Z,45.48
2023-01-02T15:01:11.959Z,46.10
2023-01-02T15:06:24.176Z,45.93
2023-01-02T15:11:45.688Z,45.94
2023-01-02T15:16:52.805Z,46.11
2023-01-02T15:21:56.611Z,46.43
2023-01-02T15:27:15.448Z,46.85
2023-01-02T15:32:21.713Z,47.37
2023-01-02T15:37:24.688Z,47.30
2023-01-02T15:42:46.974Z,47.51
2023-01-02T15:47:52.562Z,47.31
2023-01-02T15:52:59.221Z,47.96
2023-01-02T15:58:21.152Z,48.19
2023-01-02T16:04:00.165Z,47.99
2023-01-02T16:09:06.784Z,48.25
2023-01-02T16:14:22.319Z,49.06
2023-01-02T16:19:37.076Z,49.17
2023-01-02T16:24:45.700Z,49.16
2023-01-02T16:29:53.405Z,49.45
2023-01-02T16:35:05.986Z,49.53
2023-01-02T16:41:01.571Z,49.96
2023-01-02T16:46:12.396Z,50.01
2023-01-02T16:51:16.787Z,50.15
2023-01-02T16:56:20.663Z,51.14
2023-01-02T17:01:25.731Z,50.82
2023-01-02T17:06:28.856Z,51.07
2023-01-02T17:11:32.318Z,51.64
2023-01-02T17:16:36.594Z,52.21
2023-01-02T17:21:39.619Z,52.74
2023-01-02T17:26:42.730Z,52.62
2023-01-02T17:31:47.102Z,52.63
2023-01-02T17:36:50.065Z,51.91
2023-01-02T17:41:53.026Z,51.36
2023-01-02T17:52:20.195Z,52.45
2023-01-02T17:57:23.117Z,52.72
2023-01-02T18:02:27.911Z,52.15
2023-01-02T18:07:31.342Z,51.97
2023-01-02T18:12:36.259Z,52.38
2023-01-02T18:17:40.607Z,52.45
2023-01-02T18:22:49.129Z,52.52
2023-01-02T18:27:57.324Z,52.37
2023-01-02T18:33:12.137Z,53.13
2023-01-02T18:38:20.162Z,53.15
2023-01-02T18:43:28.106Z,53.75
2023-01-02T18:48:32.442Z,54.22
2023-01-02T18:53:39.916Z,54.99
2023-01-02T18:58:44.617Z,54.90
2023-01-02T19:03:49.907Z,54.49
2023-01-02T19:08:52.857Z,55.20
2023-01-02T19:13:59.032Z,55.32
2023-01-02T19:19:09.773Z,55.15
2023-01-02T19:24:18.882Z,55.40
2023-01-02T19:29:24.629Z,55.41
2023-01-02T19:34:43.371Z,56.11
2023-01-02T19:39:49.414Z,56.48
2023-01-02T19:44:54.219Z,57.33
2023-01-02T19:49:59.272Z,57.69
2023-01-02T19:55:02.432Z,57.43
2023-01-02T20:00:07.571Z,57.50
2023-01-02T20:05:21.798Z,57.69
2023-01-02T20:10:25.979Z,57.46
2023-01-02T20:15:29.294Z,58.08
2023-01-02T20:20:34.249Z,58.49
2023-01-02T20:25:37.191Z,67.12
2023-01-02T20:30:40.115Z,79.53
2023-01-02T20:35:44.357Z,82.05
2023-01-02T20:40:47.530Z,82.31
2023-01-02T20:45:50.422Z,85.67
2023-01-02T20:50:54.779Z,82.24
2023-01-02T20:55:57.706Z,82.58
2023-01-02T21:01:00.634Z,82.45
2023-01-02T21:06:05.144Z,82.43
2023-01-02T21:11:08.946Z,82.20
2023-01-02T21:16:11.898Z,82.29
2023-01-02T21:21:20.178Z,82.90
2023-01-02T21:26:23.604Z,84.40
2023-01-02T21:31:27.401Z,84.23
2023-01-02T21:36:32.885Z,83.39
2023-01-02T21:41:53.354Z,84.44
2023-01-02T21:46:58.007Z,83.61
2023-01-02T21:52:02.536Z,83.72
2023-01-02T21:57:05.617Z,82.95
2023-01-02T22:02:08.819Z,82.89
2023-01-02T22:07:31.065Z,82.55
2023-01-02T22:12:35.036Z,82.32
2023-01-02T22:17:37.967Z,83.14
2023-01-02T22:22:42.271Z,83.58
2023-01-02T22:27:45.318Z,83.76
2023-01-02T22:32:48.210Z,82.81
2023-01-02T22:37:52.442Z,81.95
2023-01-02T22:43:01.088Z,81.69
2023-01-02T22:48:09.104Z,82.17
2023-01-02T22:53:20.159Z,82.16
2023-01-02T22:58:23.528Z,82.18
2023-01-02T23:03:28.952Z,82.04
2023-01-02T23:08:33.278Z,82.54
2023-01-02T23:13:37.388Z,82.65
2023-01-02T23:18:57.700Z,81.83
2023-01-02T23:24:02.436Z,82.62
2023-01-02T23:29:07.671Z,82.10
2023-01-02T23:34:14.257Z,80.90
2023-01-02T23:39:20.184Z,80.71
2023-01-02T23:44:24.342Z,80.85
2023-01-02T23:49:27.266Z,80.98
2023-01-02T23:54:31.939Z,80.40
2023-01-02T23:59:34.921Z,81.15
